Terminal Aerodrome Forecast
Issued by NWS Sterling, VA

Home | Current Version | Previous Version | Text Only | Print | Product List | Glossary On
Versions: 1 2 3 4 5 6 7 8 9 10 11 12 13 14 15 16 17 18 19 20 21 22
481
FTUS41 KLWX 132327
TAFIAD
TAF
KIAD 132327Z 1400/1506 31013G23KT P6SM SCT050
     FM140500 31010G18KT P6SM SKC
     FM141500 32010KT P6SM SKC
     FM142200 04004KT P6SM BKN200
     FM150500 16006KT P6SM OVC070=

USA.gov is the U.S. government's official web portal to all federal, state and local government web resources and services.